createdAt,value
2018-10-15T00:01:40.725Z,17.03
2018-10-15T00:04:09.469Z,23.33
2018-10-15T00:06:38.197Z,16.80
2018-10-15T00:09:08.570Z,16.67
2018-10-15T00:11:37.286Z,20.27
2018-10-15T00:14:06.095Z,17.50
2018-10-15T00:16:34.872Z,16.73
2018-10-15T00:19:03.652Z,16.73
2018-10-15T00:21:32.386Z,15.30
2018-10-15T00:24:01.144Z,15.10
2018-10-15T00:26:29.863Z,16.73
2018-10-15T00:28:58.574Z,19.87
2018-10-15T00:31:27.283Z,14.90
2018-10-15T00:33:55.992Z,17.93
2018-10-15T00:36:24.714Z,14.77
2018-10-15T00:38:53.484Z,18.23
2018-10-15T00:41:22.224Z,15.57
2018-10-15T00:43:57.566Z,17.33
2018-10-15T00:46:26.323Z,15.50
2018-10-15T00:48:55.051Z,26.57
2018-10-15T00:51:23.802Z,19.47
2018-10-15T00:53:52.512Z,19.63
2018-10-15T00:56:21.251Z,16.07
2018-10-15T00:58:50.032Z,19.70
2018-10-15T01:01:18.744Z,17.17
2018-10-15T01:03:47.610Z,14.97
2018-10-15T01:06:16.577Z,16.27
2018-10-15T01:08:45.366Z,16.50
2018-10-15T01:11:14.133Z,17.27
2018-10-15T01:13:42.840Z,19.53
2018-10-15T01:16:11.567Z,18.70
2018-10-15T01:18:40.280Z,17.33
2018-10-15T01:21:09.025Z,19.20
2018-10-15T01:23:37.797Z,19.67
2018-10-15T01:26:06.947Z,17.90
2018-10-15T01:28:35.666Z,14.07
2018-10-15T01:31:04.978Z,17.40
2018-10-15T01:33:33.785Z,16.13
2018-10-15T01:36:02.533Z,17.50
2018-10-15T01:38:31.255Z,16.03
2018-10-15T01:40:59.990Z,14.93
2018-10-15T01:43:28.699Z,15.37
2018-10-15T01:45:57.424Z,14.03
2018-10-15T01:48:26.118Z,17.03
2018-10-15T01:50:54.865Z,18.37
2018-10-15T01:53:23.545Z,16.37
2018-10-15T01:55:52.251Z,12.23
2018-10-15T01:58:20.985Z,15.10
2018-10-15T02:00:49.715Z,13.77
2018-10-15T02:03:18.461Z,13.37
2018-10-15T02:05:47.230Z,17.10
2018-10-15T02:08:15.953Z,14.17
2018-10-15T02:10:44.675Z,16.70
2018-10-15T02:13:13.497Z,14.80
2018-10-15T02:15:42.259Z,13.77
2018-10-15T02:18:11.023Z,18.27
2018-10-15T02:20:39.779Z,14.17
2018-10-15T02:23:08.489Z,15.83
2018-10-15T02:25:37.258Z,13.17
2018-10-15T02:28:06.522Z,13.47
2018-10-15T02:30:35.250Z,14.07
2018-10-15T02:33:04.400Z,16.37
2018-10-15T02:35:33.112Z,13.87
2018-10-15T02:38:01.852Z,12.80
2018-10-15T02:40:30.625Z,18.27
2018-10-15T02:42:59.391Z,15.50
2018-10-15T02:45:28.171Z,20.13
2018-10-15T02:47:56.934Z,16.67
2018-10-15T02:50:25.708Z,21.57
2018-10-15T02:52:54.465Z,15.33
2018-10-15T02:55:23.219Z,21.77
2018-10-15T02:57:51.958Z,22.27
2018-10-15T03:00:20.659Z,24.93
2018-10-15T03:02:49.381Z,16.93
2018-10-15T03:05:18.161Z,15.87
2018-10-15T03:07:46.940Z,14.67
2018-10-15T03:10:15.663Z,14.70
2018-10-15T03:12:44.412Z,13.90
2018-10-15T03:15:13.130Z,15.30
2018-10-15T03:17:41.866Z,20.50
2018-10-15T03:20:12.014Z,13.60
2018-10-15T03:22:41.631Z,15.43
2018-10-15T03:25:11.030Z,16.57
2018-10-15T03:27:40.220Z,16.07
2018-10-15T03:30:10.350Z,17.37
2018-10-15T03:32:39.530Z,10.73
2018-10-15T03:35:09.771Z,15.87
2018-10-15T03:37:38.548Z,10.10
2018-10-15T03:40:07.818Z,14.23
2018-10-15T03:42:36.545Z,15.67
2018-10-15T03:45:06.771Z,21.67
2018-10-15T03:47:35.482Z,13.23
2018-10-15T03:50:04.299Z,15.43
2018-10-15T03:52:33.042Z,17.97
2018-10-15T03:55:01.755Z,17.40
2018-10-15T03:57:30.533Z,16.70
2018-10-15T03:59:59.216Z,20.20
2018-10-15T04:02:28.025Z,23.10
2018-10-15T04:04:56.955Z,21.53
2018-10-15T04:07:25.894Z,29.00
2018-10-15T04:09:54.682Z,24.23
2018-10-15T04:12:23.560Z,16.70
2018-10-15T04:14:52.351Z,18.77
2018-10-15T04:17:21.130Z,19.70
2018-10-15T04:19:49.872Z,16.70
2018-10-15T04:22:18.988Z,21.17
2018-10-15T04:24:47.740Z,16.27
2018-10-15T04:27:16.554Z,17.40
2018-10-15T04:29:45.287Z,18.57
2018-10-15T04:32:14.012Z,18.73
2018-10-15T04:34:42.724Z,21.77
2018-10-15T04:37:11.500Z,22.53
2018-10-15T04:39:40.271Z,28.10
2018-10-15T04:42:09.106Z,23.87
2018-10-15T04:44:37.881Z,23.40
2018-10-15T04:47:06.702Z,17.37
2018-10-15T04:49:35.746Z,28.33
2018-10-15T04:52:04.433Z,29.03
2018-10-15T04:54:33.191Z,27.50
2018-10-15T04:57:01.933Z,23.80
2018-10-15T04:59:30.655Z,20.83
2018-10-15T05:01:59.405Z,33.27
2018-10-15T05:04:28.131Z,24.63
2018-10-15T05:06:56.840Z,35.00
2018-10-15T05:09:25.845Z,19.67
2018-10-15T05:11:54.781Z,40.17
2018-10-15T05:14:23.524Z,22.27
2018-10-15T05:16:52.277Z,20.47
2018-10-15T05:19:24.070Z,24.07
2018-10-15T05:21:52.877Z,25.77
2018-10-15T05:24:22.195Z,26.10
2018-10-15T05:26:51.082Z,33.23
2018-10-15T05:29:19.796Z,27.10
2018-10-15T05:31:48.495Z,20.83
2018-10-15T05:34:17.215Z,36.77
2018-10-15T05:36:46.019Z,29.03
2018-10-15T05:39:14.858Z,24.00
2018-10-15T05:41:43.641Z,22.97
2018-10-15T05:44:12.423Z,23.80
2018-10-15T05:46:41.300Z,30.10
2018-10-15T05:49:10.345Z,26.03
2018-10-15T05:51:39.140Z,28.80
2018-10-15T05:54:07.928Z,32.03
2018-10-15T05:56:36.835Z,31.73
2018-10-15T05:59:06.210Z,29.20
2018-10-15T06:01:34.968Z,27.97
2018-10-15T06:04:03.829Z,29.33
2018-10-15T06:06:32.603Z,22.87
2018-10-15T06:09:01.356Z,44.80
2018-10-15T06:11:30.166Z,33.37
2018-10-15T06:13:59.107Z,31.63
2018-10-15T06:16:27.970Z,33.10
2018-10-15T06:18:56.725Z,23.83
2018-10-15T06:21:25.470Z,25.60
2018-10-15T06:23:55.032Z,25.00
2018-10-15T06:26:23.964Z,28.23
2018-10-15T06:28:53.384Z,27.50
2018-10-15T06:31:22.261Z,18.10
2018-10-15T06:33:51.125Z,22.83
2018-10-15T06:36:20.142Z,18.13
2018-10-15T06:38:49.037Z,22.97
2018-10-15T06:41:17.848Z,26.53
2018-10-15T06:43:46.853Z,24.57
2018-10-15T06:46:15.829Z,24.43
2018-10-15T06:48:44.746Z,24.23
2018-10-15T06:51:13.508Z,23.00
2018-10-15T06:53:42.444Z,18.83
2018-10-15T06:56:11.331Z,27.40
2018-10-15T06:58:40.146Z,25.57
2018-10-15T07:01:08.999Z,23.77
2018-10-15T07:03:37.983Z,21.93
2018-10-15T07:06:07.358Z,24.97
2018-10-15T07:08:36.143Z,18.80
2018-10-15T07:11:05.031Z,25.63
2018-10-15T07:13:33.891Z,16.03
2018-10-15T07:16:02.702Z,17.03
2018-10-15T07:18:31.610Z,15.33
2018-10-15T07:21:00.466Z,16.60
2018-10-15T07:23:29.232Z,14.93
2018-10-15T07:25:58.067Z,11.50
2018-10-15T07:28:29.055Z,16.23
2018-10-15T07:30:58.075Z,17.10
2018-10-15T07:33:26.967Z,14.33
2018-10-15T07:35:56.213Z,15.33
2018-10-15T07:38:25.004Z,19.13
2018-10-15T07:40:53.811Z,22.40
2018-10-15T07:43:22.591Z,20.30
2018-10-15T07:45:51.400Z,15.27
2018-10-15T07:48:20.243Z,20.47
2018-10-15T07:50:49.159Z,14.77
2018-10-15T07:53:19.007Z,16.50
2018-10-15T07:55:47.967Z,10.77
2018-10-15T07:58:16.812Z,12.67
2018-10-15T08:00:45.500Z,10.47
2018-10-15T08:03:14.374Z,12.27
2018-10-15T08:05:43.297Z,15.03
2018-10-15T08:08:12.371Z,16.20
2018-10-15T08:10:41.368Z,13.93
2018-10-15T08:13:10.117Z,13.07
2018-10-15T08:15:39.035Z,12.37
2018-10-15T08:18:07.988Z,13.60
2018-10-15T08:20:36.764Z,13.97
2018-10-15T08:23:05.764Z,13.77
2018-10-15T08:25:34.521Z,13.40
2018-10-15T08:28:03.352Z,9.47
2018-10-15T08:30:32.092Z,11.47
2018-10-15T08:33:00.920Z,10.33
2018-10-15T08:35:29.727Z,10.77
2018-10-15T08:37:58.615Z,10.03
2018-10-15T08:40:27.368Z,12.83
2018-10-15T08:42:56.154Z,13.57
2018-10-15T08:45:25.284Z,11.50
2018-10-15T08:47:54.360Z,12.77
2018-10-15T08:50:23.343Z,7.83
2018-10-15T08:52:52.752Z,12.20
2018-10-15T08:55:21.739Z,10.33
2018-10-15T08:57:50.596Z,6.60
2018-10-15T09:00:21.576Z,10.90
2018-10-15T09:02:50.467Z,10.03
2018-10-15T09:05:19.341Z,11.97
2018-10-15T09:07:48.317Z,12.20
2018-10-15T09:10:18.279Z,11.60
2018-10-15T09:12:47.147Z,10.23
2018-10-15T09:15:21.475Z,10.23
2018-10-15T09:17:50.242Z,13.03
2018-10-15T09:20:19.117Z,12.67
2018-10-15T09:22:47.845Z,11.33
2018-10-15T09:25:17.980Z,10.47
2018-10-15T09:27:47.060Z,15.47
2018-10-15T09:30:20.456Z,11.87
2018-10-15T09:32:49.596Z,9.17
2018-10-15T09:35:19.312Z,11.20
2018-10-15T09:37:48.219Z,9.17
2018-10-15T09:40:19.601Z,10.07
2018-10-15T09:42:48.764Z,9.37
2018-10-15T09:45:18.727Z,11.97
2018-10-15T09:47:48.627Z,10.63
2018-10-15T09:50:17.539Z,7.73
2018-10-15T09:52:46.476Z,7.83
2018-10-15T09:55:16.137Z,7.63
2018-10-15T09:57:45.034Z,16.57
2018-10-15T10:00:19.973Z,5.90
2018-10-15T10:02:51.454Z,8.37
2018-10-15T10:05:20.355Z,7.63
2018-10-15T10:07:49.146Z,11.20
2018-10-15T10:10:18.117Z,8.87
2018-10-15T10:12:46.862Z,6.50
2018-10-15T10:15:16.010Z,9.60
2018-10-15T10:17:45.740Z,7.03
2018-10-15T10:20:15.398Z,8.07
2018-10-15T10:22:44.216Z,5.87
2018-10-15T10:25:14.187Z,9.87
2018-10-15T10:27:42.973Z,7.20
2018-10-15T10:30:13.087Z,8.73
2018-10-15T10:32:42.101Z,15.30
2018-10-15T10:35:46.852Z,7.53
2018-10-15T10:38:54.823Z,9.93
2018-10-15T10:41:23.714Z,4.10
2018-10-15T10:43:52.543Z,4.63
2018-10-15T10:46:21.367Z,8.30
2018-10-15T10:48:50.080Z,7.60
2018-10-15T10:51:18.797Z,4.10
2018-10-15T10:53:47.530Z,4.20
2018-10-15T10:56:16.262Z,4.50
2018-10-15T10:58:45.119Z,7.90
2018-10-15T11:01:14.024Z,7.10
2018-10-15T11:03:42.906Z,8.27
2018-10-15T11:06:11.746Z,6.17
2018-10-15T11:08:40.555Z,4.73
2018-10-15T11:11:09.578Z,5.47
2018-10-15T11:13:38.316Z,4.57
2018-10-15T11:16:07.694Z,7.63
2018-10-15T11:18:36.837Z,4.67
2018-10-15T11:21:06.061Z,4.40
2018-10-15T11:23:34.919Z,8.17
2018-10-15T11:26:03.645Z,7.23
2018-10-15T11:28:32.383Z,4.50
2018-10-15T11:31:01.105Z,3.20
2018-10-15T11:33:29.866Z,6.00
2018-10-15T11:35:58.649Z,8.20
2018-10-15T11:38:27.395Z,5.57
2018-10-15T11:40:56.122Z,6.53
2018-10-15T11:43:24.953Z,13.37
2018-10-15T11:45:53.816Z,13.50
2018-10-15T11:48:22.542Z,6.53
2018-10-15T11:50:51.269Z,6.17
2018-10-15T11:53:20.070Z,8.57
2018-10-15T11:55:48.726Z,8.60
2018-10-15T11:58:17.419Z,5.67
2018-10-15T12:00:46.232Z,5.97
2018-10-15T12:03:14.990Z,2.60
2018-10-15T12:05:43.796Z,3.33
2018-10-15T12:08:12.721Z,4.23
2018-10-15T12:10:41.397Z,4.80
2018-10-15T12:13:10.111Z,4.77
2018-10-15T12:15:38.888Z,6.00
2018-10-15T12:18:07.638Z,4.47
2018-10-15T12:20:36.444Z,6.03
2018-10-15T12:23:05.232Z,4.13
2018-10-15T12:25:33.934Z,4.03
2018-10-15T12:28:02.688Z,3.80
2018-10-15T12:30:31.454Z,3.03
2018-10-15T12:33:00.250Z,4.80
2018-10-15T12:35:29.016Z,5.20
2018-10-15T12:37:57.799Z,8.63
2018-10-15T12:40:26.838Z,5.87
2018-10-15T12:42:55.814Z,5.03
2018-10-15T12:45:29.918Z,8.17
2018-10-15T12:47:59.052Z,7.13
2018-10-15T12:50:27.790Z,6.23
2018-10-15T12:52:56.550Z,7.47
2018-10-15T12:55:25.290Z,5.67
2018-10-15T12:57:53.998Z,5.23
2018-10-15T13:00:22.817Z,6.87
2018-10-15T13:02:51.586Z,3.07
2018-10-15T13:05:25.202Z,8.83
2018-10-15T13:07:54.652Z,5.13
2018-10-15T13:10:23.735Z,5.53
2018-10-15T13:12:52.580Z,6.03
2018-10-15T13:15:22.123Z,5.57
2018-10-15T13:17:51.174Z,5.00
2018-10-15T13:20:20.162Z,8.53
2018-10-15T13:22:48.911Z,8.13
2018-10-15T13:25:17.744Z,6.23
2018-10-15T13:27:46.478Z,7.60
2018-10-15T13:30:15.655Z,4.00
2018-10-15T13:32:51.082Z,6.23
2018-10-15T13:35:19.781Z,6.47
2018-10-15T13:37:48.578Z,7.20
2018-10-15T13:40:17.299Z,7.30
2018-10-15T13:42:46.032Z,4.47
2018-10-15T13:45:14.910Z,5.93
2018-10-15T13:47:43.865Z,9.07
2018-10-15T13:50:13.072Z,5.57
2018-10-15T13:52:42.367Z,7.63
2018-10-15T13:55:12.302Z,6.63
2018-10-15T13:57:41.213Z,5.73
2018-10-15T14:00:21.229Z,3.90
2018-10-15T14:02:50.100Z,8.70
2018-10-15T14:05:19.011Z,5.33
2018-10-15T14:07:47.940Z,7.63
2018-10-15T14:10:16.679Z,3.90
2018-10-15T14:12:45.393Z,4.53
2018-10-15T14:15:15.250Z,3.33
2018-10-15T14:17:44.136Z,5.73
2018-10-15T14:20:13.530Z,4.20
2018-10-15T14:22:43.436Z,6.17
2018-10-15T14:25:13.361Z,7.37
2018-10-15T14:27:43.384Z,10.17
2018-10-15T14:30:15.269Z,12.33
2018-10-15T14:32:44.453Z,12.13
2018-10-15T14:35:14.419Z,13.40
2018-10-15T14:37:44.041Z,11.33
2018-10-15T14:40:20.383Z,13.10
2018-10-15T14:42:50.111Z,11.60
2018-10-15T14:45:19.186Z,12.70
2018-10-15T14:47:47.937Z,12.17
2018-10-15T14:50:18.013Z,14.43
2018-10-15T14:52:48.761Z,12.23
2018-10-15T14:55:17.676Z,14.50
2018-10-15T14:57:46.364Z,12.10
2018-10-15T15:00:18.640Z,13.80
2018-10-15T15:02:47.380Z,11.33
2018-10-15T15:05:16.373Z,19.17
2018-10-15T15:07:45.221Z,12.20
2018-10-15T15:10:25.668Z,13.07
2018-10-15T15:13:05.554Z,10.30
2018-10-15T15:15:34.432Z,16.43
2018-10-15T15:18:03.161Z,14.30
2018-10-15T15:20:31.901Z,12.20
2018-10-15T15:23:00.669Z,14.77
2018-10-15T15:25:29.429Z,12.27
2018-10-15T15:27:58.181Z,12.87
2018-10-15T15:30:27.090Z,13.83
2018-10-15T15:32:55.945Z,15.20
2018-10-15T15:35:24.763Z,9.53
2018-10-15T15:37:53.497Z,12.60
2018-10-15T15:40:22.177Z,10.90
2018-10-15T15:42:50.916Z,17.03
2018-10-15T15:45:19.715Z,10.70
2018-10-15T15:47:48.645Z,13.90
2018-10-15T15:50:17.573Z,14.67
2018-10-15T15:52:46.291Z,20.63
2018-10-15T15:55:15.027Z,14.13
2018-10-15T15:57:43.812Z,11.57
2018-10-15T16:00:16.497Z,17.57
2018-10-15T16:02:45.253Z,17.00
2018-10-15T16:05:13.997Z,19.63
2018-10-15T16:07:42.789Z,12.80
2018-10-15T16:10:11.552Z,16.50
2018-10-15T16:12:40.294Z,15.27
2018-10-15T16:15:10.541Z,16.30
2018-10-15T16:17:39.701Z,16.43
2018-10-15T16:20:09.358Z,15.47
2018-10-15T16:22:38.155Z,14.10
2018-10-15T16:25:07.569Z,14.57
2018-10-15T16:27:36.627Z,12.47
2018-10-15T16:30:10.718Z,19.17
2018-10-15T16:32:40.079Z,17.23
2018-10-15T16:35:10.262Z,17.30
2018-10-15T16:37:39.982Z,16.53
2018-10-15T16:40:09.428Z,21.07
2018-10-15T16:42:38.478Z,16.80
2018-10-15T16:45:09.423Z,18.90
2018-10-15T16:47:38.233Z,19.60
2018-10-15T16:50:09.519Z,16.17
2018-10-15T16:52:38.955Z,20.40
2018-10-15T16:55:10.287Z,14.73
2018-10-15T16:57:39.722Z,19.07
2018-10-15T17:00:10.130Z,16.47
2018-10-15T17:02:39.453Z,12.17
2018-10-15T17:05:09.399Z,16.20
2018-10-15T17:07:38.477Z,20.33
2018-10-15T17:10:09.008Z,19.13
2018-10-15T17:12:37.763Z,14.83
2018-10-15T17:15:08.132Z,15.60
2018-10-15T17:17:37.159Z,19.70
2018-10-15T17:20:07.170Z,16.40
2018-10-15T17:22:35.927Z,17.00
2018-10-15T17:25:04.742Z,15.03
2018-10-15T17:27:33.568Z,14.80
2018-10-15T17:30:02.359Z,13.87
2018-10-15T17:32:31.087Z,12.13
2018-10-15T17:34:59.867Z,14.37
2018-10-15T17:37:28.658Z,14.50
2018-10-15T17:39:57.646Z,17.47
2018-10-15T17:42:26.391Z,13.87
2018-10-15T17:44:55.206Z,17.73
2018-10-15T17:47:24.138Z,17.03
2018-10-15T17:49:57.889Z,15.10
2018-10-15T17:52:26.672Z,17.40
2018-10-15T17:54:55.503Z,16.20
2018-10-15T17:57:24.283Z,14.43
2018-10-15T17:59:53.069Z,16.33
2018-10-15T18:02:21.823Z,16.47
2018-10-15T18:04:50.587Z,14.17
2018-10-15T18:07:19.321Z,16.33
2018-10-15T18:09:48.056Z,12.20
2018-10-15T18:12:16.973Z,17.40
2018-10-15T18:14:45.900Z,14.57
2018-10-15T18:17:14.739Z,19.47
2018-10-15T18:19:43.492Z,18.03
2018-10-15T18:22:12.313Z,19.37
2018-10-15T18:24:41.107Z,16.30
2018-10-15T18:27:09.968Z,14.83
2018-10-15T18:29:39.017Z,15.50
2018-10-15T18:32:08.257Z,18.83
2018-10-15T18:34:36.959Z,17.50
2018-10-15T18:37:05.988Z,17.10
2018-10-15T18:39:34.707Z,13.70
2018-10-15T18:42:04.264Z,21.23
2018-10-15T18:44:33.122Z,19.73
2018-10-15T18:47:01.937Z,22.47
2018-10-15T18:49:30.737Z,16.27
2018-10-15T18:51:59.534Z,16.27
2018-10-15T18:54:28.442Z,13.63
2018-10-15T18:56:57.271Z,16.53
2018-10-15T18:59:26.174Z,21.40
2018-10-15T19:01:55.273Z,17.60
2018-10-15T19:04:24.141Z,14.10
2018-10-15T19:06:53.098Z,14.70
2018-10-15T19:09:26.052Z,18.97
2018-10-15T19:11:54.957Z,11.63
2018-10-15T19:14:23.790Z,14.57
2018-10-15T19:16:52.556Z,16.20
2018-10-15T19:19:21.367Z,15.07
2018-10-15T19:21:50.292Z,14.33
2018-10-15T19:24:19.074Z,16.53
2018-10-15T19:26:47.845Z,16.37
2018-10-15T19:29:16.598Z,13.83
2018-10-15T19:31:45.380Z,12.57
2018-10-15T19:34:14.174Z,13.60
2018-10-15T19:36:43.012Z,15.13
2018-10-15T19:39:13.337Z,16.67
2018-10-15T19:41:42.210Z,15.60
2018-10-15T19:44:11.796Z,18.23
2018-10-15T19:46:40.617Z,14.97
2018-10-15T19:49:09.665Z,13.33
2018-10-15T19:51:38.626Z,16.67
2018-10-15T19:54:07.385Z,13.07
2018-10-15T19:56:36.696Z,15.73
2018-10-15T19:59:06.744Z,15.07
2018-10-15T20:01:35.722Z,11.63
2018-10-15T20:04:05.319Z,14.10
2018-10-15T20:06:34.215Z,14.70
2018-10-15T20:09:03.052Z,14.63
2018-10-15T20:11:31.881Z,13.63
2018-10-15T20:14:00.592Z,14.47
2018-10-15T20:16:30.217Z,14.07
2018-10-15T20:18:58.949Z,13.23
2018-10-15T20:21:27.721Z,12.07
2018-10-15T20:23:56.488Z,14.77
2018-10-15T20:26:25.290Z,12.40
2018-10-15T20:28:54.037Z,11.37
2018-10-15T20:31:22.973Z,12.03
2018-10-15T20:33:51.716Z,13.87
2018-10-15T20:36:20.549Z,13.33
2018-10-15T20:38:49.238Z,13.33
2018-10-15T20:41:18.003Z,11.67
2018-10-15T20:43:46.713Z,14.23
2018-10-15T20:46:15.560Z,12.07
2018-10-15T20:48:44.349Z,10.60
2018-10-15T20:51:13.602Z,11.37
2018-10-15T20:53:42.409Z,16.00
2018-10-15T20:56:11.191Z,9.97
2018-10-15T20:58:39.917Z,14.63
2018-10-15T21:01:08.629Z,12.60
2018-10-15T21:03:37.416Z,10.93
2018-10-15T21:06:06.183Z,13.40
2018-10-15T21:08:34.975Z,15.00
2018-10-15T21:11:03.729Z,11.70
2018-10-15T21:13:32.536Z,9.13
2018-10-15T21:16:01.293Z,10.43
2018-10-15T21:18:30.109Z,9.07
2018-10-15T21:20:59.024Z,14.73
2018-10-15T21:23:27.818Z,10.77
2018-10-15T21:25:56.752Z,12.40
2018-10-15T21:28:25.489Z,11.27
2018-10-15T21:30:54.226Z,11.10
2018-10-15T21:33:22.974Z,10.93
2018-10-15T21:35:51.717Z,11.10
2018-10-15T21:38:20.486Z,11.67
2018-10-15T21:40:49.223Z,11.17
2018-10-15T21:43:18.012Z,10.00
2018-10-15T21:45:46.838Z,9.23
2018-10-15T21:48:15.752Z,12.20
2018-10-15T21:50:44.492Z,9.00
2018-10-15T21:53:13.224Z,9.63
2018-10-15T21:55:42.041Z,8.37
2018-10-15T21:58:10.959Z,12.33
2018-10-15T22:00:43.906Z,11.73
2018-10-15T22:03:12.678Z,10.50
2018-10-15T22:05:41.455Z,8.80
2018-10-15T22:08:10.753Z,12.30
2018-10-15T22:10:39.522Z,10.63
2018-10-15T22:13:08.298Z,6.97
2018-10-15T22:15:37.131Z,10.80
2018-10-15T22:18:06.319Z,8.10
2018-10-15T22:20:35.154Z,7.03
2018-10-15T22:23:04.238Z,9.47
2018-10-15T22:25:32.939Z,8.60
2018-10-15T22:28:01.723Z,11.30
2018-10-15T22:30:30.551Z,9.00
2018-10-15T22:32:59.350Z,11.67
2018-10-15T22:35:28.103Z,8.50
2018-10-15T22:37:56.874Z,8.20
2018-10-15T22:40:25.612Z,7.37
2018-10-15T22:42:54.385Z,8.97
2018-10-15T22:45:23.285Z,9.27
2018-10-15T22:47:52.042Z,8.27
2018-10-15T22:50:21.182Z,10.17
2018-10-15T22:52:49.903Z,7.63
2018-10-15T22:55:18.632Z,9.60
2018-10-15T22:57:47.411Z,6.17
2018-10-15T23:00:17.406Z,10.70
2018-10-15T23:02:46.633Z,8.00
2018-10-15T23:05:15.706Z,9.43
2018-10-15T23:07:45.149Z,7.27
2018-10-15T23:10:19.061Z,8.80
2018-10-15T23:12:48.352Z,9.20
2018-10-15T23:15:17.359Z,9.87
2018-10-15T23:17:46.158Z,8.40
2018-10-15T23:20:14.920Z,9.80
2018-10-15T23:22:43.630Z,6.43
2018-10-15T23:25:12.358Z,7.17
2018-10-15T23:27:41.153Z,7.97
2018-10-15T23:30:10.843Z,8.57
2018-10-15T23:32:40.707Z,10.03
2018-10-15T23:35:09.998Z,7.03
2018-10-15T23:37:40.095Z,9.83
2018-10-15T23:40:10.795Z,8.50
2018-10-15T23:42:39.871Z,8.00
2018-10-15T23:45:10.347Z,8.70
2018-10-15T23:47:39.732Z,8.40
2018-10-15T23:50:11.947Z,9.50
2018-10-15T23:52:40.730Z,7.20
2018-10-15T23:55:10.761Z,7.27
2018-10-15T23:57:40.072Z,12.50
